sensor_id;sensor_type;location;lat;lon;timestamp;temperature;humidity
37658;DHT22;23500;53.268;8.308;2023-11-21T00:00:19;21.50;62.50
37658;DHT22;23500;53.268;8.308;2023-11-21T00:02:45;21.50;62.50
37658;DHT22;23500;53.268;8.308;2023-11-21T00:05:12;21.50;62.50
37658;DHT22;23500;53.268;8.308;2023-11-21T00:07:40;21.40;62.60
37658;DHT22;23500;53.268;8.308;2023-11-21T00:10:06;21.40;62.50
37658;DHT22;23500;53.268;8.308;2023-11-21T00:12:34;21.40;62.60
37658;DHT22;23500;53.268;8.308;2023-11-21T00:14:59;21.40;62.50
37658;DHT22;23500;53.268;8.308;2023-11-21T00:17:25;21.40;62.60
37658;DHT22;23500;53.268;8.308;2023-11-21T00:19:51;21.40;62.60
37658;DHT22;23500;53.268;8.308;2023-11-21T00:22:20;21.40;62.50
37658;DHT22;23500;53.268;8.308;2023-11-21T00:24:46;21.40;62.50
37658;DHT22;23500;53.268;8.308;2023-11-21T00:27:12;21.40;62.60
37658;DHT22;23500;53.268;8.308;2023-11-21T00:29:38;21.40;62.60
37658;DHT22;23500;53.268;8.308;2023-11-21T00:32:06;21.40;62.60
37658;DHT22;23500;53.268;8.308;2023-11-21T00:34:32;21.30;62.50
37658;DHT22;23500;53.268;8.308;2023-11-21T00:36:58;21.30;62.50
37658;DHT22;23500;53.268;8.308;2023-11-21T00:39:24;21.40;62.60
37658;DHT22;23500;53.268;8.308;2023-11-21T00:41:52;21.30;62.50
37658;DHT22;23500;53.268;8.308;2023-11-21T00:44:18;21.30;62.50
37658;DHT22;23500;53.268;8.308;2023-11-21T00:46:44;21.30;62.50
37658;DHT22;23500;53.268;8.308;2023-11-21T00:49:10;21.30;62.50
37658;DHT22;23500;53.268;8.308;2023-11-21T00:51:35;21.30;62.50
37658;DHT22;23500;53.268;8.308;2023-11-21T00:54:02;21.30;62.50
37658;DHT22;23500;53.268;8.308;2023-11-21T00:56:28;21.30;62.50
37658;DHT22;23500;53.268;8.308;2023-11-21T00:58:54;21.30;62.50
37658;DHT22;23500;53.268;8.308;2023-11-21T01:01:20;21.20;62.40
37658;DHT22;23500;53.268;8.308;2023-11-21T01:03:47;21.20;62.40
37658;DHT22;23500;53.268;8.308;2023-11-21T01:06:14;21.20;62.40
37658;DHT22;23500;53.268;8.308;2023-11-21T01:08:40;21.20;62.50
37658;DHT22;23500;53.268;8.308;2023-11-21T01:11:06;21.20;62.60
37658;DHT22;23500;53.268;8.308;2023-11-21T01:13:34;21.20;62.50
37658;DHT22;23500;53.268;8.308;2023-11-21T01:16:00;21.20;62.60
37658;DHT22;23500;53.268;8.308;2023-11-21T01:18:26;21.10;62.60
37658;DHT22;23500;53.268;8.308;2023-11-21T01:20:52;21.10;62.60
37658;DHT22;23500;53.268;8.308;2023-11-21T01:23:20;21.10;62.60
37658;DHT22;23500;53.268;8.308;2023-11-21T01:25:46;21.10;62.70
37658;DHT22;23500;53.268;8.308;2023-11-21T01:28:12;21.10;62.70
37658;DHT22;23500;53.268;8.308;2023-11-21T01:30:38;21.10;62.70
37658;DHT22;23500;53.268;8.308;2023-11-21T01:33:03;21.10;62.70
37658;DHT22;23500;53.268;8.308;2023-11-21T01:35:29;21.10;62.70
37658;DHT22;23500;53.268;8.308;2023-11-21T01:37:56;21.10;62.70
37658;DHT22;23500;53.268;8.308;2023-11-21T01:40:21;21.10;62.70
37658;DHT22;23500;53.268;8.308;2023-11-21T01:42:47;21.10;62.70
37658;DHT22;23500;53.268;8.308;2023-11-21T01:45:13;21.00;62.60
37658;DHT22;23500;53.268;8.308;2023-11-21T01:47:41;21.00;62.70
37658;DHT22;23500;53.268;8.308;2023-11-21T01:50:08;21.00;62.60
37658;DHT22;23500;53.268;8.308;2023-11-21T01:52:37;21.00;62.70
37658;DHT22;23500;53.268;8.308;2023-11-21T01:55:05;21.00;62.70
37658;DHT22;23500;53.268;8.308;2023-11-21T01:57:32;21.00;62.70
37658;DHT22;23500;53.268;8.308;2023-11-21T01:59:58;21.00;62.70
37658;DHT22;23500;53.268;8.308;2023-11-21T02:02:44;21.00;62.70
37658;DHT22;23500;53.268;8.308;2023-11-21T02:05:20;21.00;62.70
37658;DHT22;23500;53.268;8.308;2023-11-21T02:07:47;21.00;62.70
37658;DHT22;23500;53.268;8.308;2023-11-21T02:10:14;21.00;62.70
37658;DHT22;23500;53.268;8.308;2023-11-21T02:12:41;21.00;62.70
37658;DHT22;23500;53.268;8.308;2023-11-21T02:15:09;20.90;62.60
37658;DHT22;23500;53.268;8.308;2023-11-21T02:17:43;21.00;62.70
37658;DHT22;23500;53.268;8.308;2023-11-21T02:20:12;20.90;62.60
37658;DHT22;23500;53.268;8.308;2023-11-21T02:22:41;21.00;62.70
37658;DHT22;23500;53.268;8.308;2023-11-21T02:25:08;21.00;62.60
37658;DHT22;23500;53.268;8.308;2023-11-21T02:27:34;20.90;62.70
37658;DHT22;23500;53.268;8.308;2023-11-21T02:30:00;20.90;62.70
37658;DHT22;23500;53.268;8.308;2023-11-21T02:32:26;20.90;62.70
37658;DHT22;23500;53.268;8.308;2023-11-21T02:34:52;20.90;62.70
37658;DHT22;23500;53.268;8.308;2023-11-21T02:37:21;20.90;62.70
37658;DHT22;23500;53.268;8.308;2023-11-21T02:39:47;20.90;62.70
37658;DHT22;23500;53.268;8.308;2023-11-21T02:42:12;20.90;62.70
37658;DHT22;23500;53.268;8.308;2023-11-21T02:44:38;20.90;62.70
37658;DHT22;23500;53.268;8.308;2023-11-21T02:47:04;20.80;62.70
37658;DHT22;23500;53.268;8.308;2023-11-21T02:49:30;20.80;62.70
37658;DHT22;23500;53.268;8.308;2023-11-21T02:51:56;20.80;62.80
37658;DHT22;23500;53.268;8.308;2023-11-21T02:54:22;20.80;62.80
37658;DHT22;23500;53.268;8.308;2023-11-21T02:56:48;20.80;62.80
37658;DHT22;23500;53.268;8.308;2023-11-21T02:59:15;20.80;62.80
37658;DHT22;23500;53.268;8.308;2023-11-21T03:01:41;20.80;62.80
37658;DHT22;23500;53.268;8.308;2023-11-21T03:04:06;20.80;62.80
37658;DHT22;23500;53.268;8.308;2023-11-21T03:06:32;20.70;62.80
37658;DHT22;23500;53.268;8.308;2023-11-21T03:08:59;20.70;62.80
37658;DHT22;23500;53.268;8.308;2023-11-21T03:11:25;20.80;62.80
37658;DHT22;23500;53.268;8.308;2023-11-21T03:13:50;20.80;62.80
37658;DHT22;23500;53.268;8.308;2023-11-21T03:16:16;20.70;62.90
37658;DHT22;23500;53.268;8.308;2023-11-21T03:18:42;20.70;62.80
37658;DHT22;23500;53.268;8.308;2023-11-21T03:21:08;20.70;62.80
37658;DHT22;23500;53.268;8.308;2023-11-21T03:23:35;20.70;62.90
37658;DHT22;23500;53.268;8.308;2023-11-21T03:26:01;20.70;62.90
37658;DHT22;23500;53.268;8.308;2023-11-21T03:28:27;20.70;62.90
37658;DHT22;23500;53.268;8.308;2023-11-21T03:30:54;20.70;62.90
37658;DHT22;23500;53.268;8.308;2023-11-21T03:33:20;20.70;62.90
37658;DHT22;23500;53.268;8.308;2023-11-21T03:35:46;20.70;62.90
37658;DHT22;23500;53.268;8.308;2023-11-21T03:38:11;20.70;62.90
37658;DHT22;23500;53.268;8.308;2023-11-21T03:40:38;20.70;62.90
37658;DHT22;23500;53.268;8.308;2023-11-21T03:43:05;20.70;62.90
37658;DHT22;23500;53.268;8.308;2023-11-21T03:45:31;20.60;62.80
37658;DHT22;23500;53.268;8.308;2023-11-21T03:47:57;20.70;62.90
37658;DHT22;23500;53.268;8.308;2023-11-21T03:50:23;20.60;62.80
37658;DHT22;23500;53.268;8.308;2023-11-21T03:52:49;20.70;62.90
37658;DHT22;23500;53.268;8.308;2023-11-21T03:55:14;20.70;62.90
37658;DHT22;23500;53.268;8.308;2023-11-21T03:57:40;20.60;63.60
37658;DHT22;23500;53.268;8.308;2023-11-21T04:00:06;20.60;62.90
37658;DHT22;23500;53.268;8.308;2023-11-21T04:02:34;20.60;62.90
37658;DHT22;23500;53.268;8.308;2023-11-21T04:05:00;20.60;62.90
37658;DHT22;23500;53.268;8.308;2023-11-21T04:07:26;20.60;63.00
37658;DHT22;23500;53.268;8.308;2023-11-21T04:09:52;20.60;63.00
37658;DHT22;23500;53.268;8.308;2023-11-21T04:12:19;20.60;63.00
37658;DHT22;23500;53.268;8.308;2023-11-21T04:14:45;20.60;63.00
37658;DHT22;23500;53.268;8.308;2023-11-21T04:17:11;20.60;63.00
37658;DHT22;23500;53.268;8.308;2023-11-21T04:19:36;20.60;62.90
37658;DHT22;23500;53.268;8.308;2023-11-21T04:22:02;20.60;62.90
37658;DHT22;23500;53.268;8.308;2023-11-21T04:24:28;20.50;62.90
37658;DHT22;23500;53.268;8.308;2023-11-21T04:26:54;20.60;63.00
37658;DHT22;23500;53.268;8.308;2023-11-21T04:29:19;20.60;63.00
37658;DHT22;23500;53.268;8.308;2023-11-21T04:31:45;20.50;62.90
37658;DHT22;23500;53.268;8.308;2023-11-21T04:34:11;20.50;62.90
37658;DHT22;23500;53.268;8.308;2023-11-21T04:36:38;20.60;63.00
37658;DHT22;23500;53.268;8.308;2023-11-21T04:39:04;20.50;63.10
37658;DHT22;23500;53.268;8.308;2023-11-21T04:41:32;20.60;63.10
37658;DHT22;23500;53.268;8.308;2023-11-21T04:43:57;20.60;63.10
37658;DHT22;23500;53.268;8.308;2023-11-21T04:46:24;20.60;63.00
37658;DHT22;23500;53.268;8.308;2023-11-21T04:48:50;20.70;62.90
37658;DHT22;23500;53.268;8.308;2023-11-21T04:51:15;20.70;62.80
37658;DHT22;23500;53.268;8.308;2023-11-21T04:53:41;20.70;62.60
37658;DHT22;23500;53.268;8.308;2023-11-21T04:56:07;20.80;62.60
37658;DHT22;23500;53.268;8.308;2023-11-21T04:58:33;20.80;62.50
37658;DHT22;23500;53.268;8.308;2023-11-21T05:00:58;20.90;62.40
37658;DHT22;23500;53.268;8.308;2023-11-21T05:03:24;20.90;62.30
37658;DHT22;23500;53.268;8.308;2023-11-21T05:05:50;21.00;62.30
37658;DHT22;23500;53.268;8.308;2023-11-21T05:08:16;21.00;62.20
37658;DHT22;23500;53.268;8.308;2023-11-21T05:10:41;21.00;62.10
37658;DHT22;23500;53.268;8.308;2023-11-21T05:13:07;21.00;62.00
37658;DHT22;23500;53.268;8.308;2023-11-21T05:15:37;21.10;62.00
37658;DHT22;23500;53.268;8.308;2023-11-21T05:18:04;21.10;62.00
37658;DHT22;23500;53.268;8.308;2023-11-21T05:20:31;21.10;62.10
37658;DHT22;23500;53.268;8.308;2023-11-21T05:22:56;21.10;62.30
37658;DHT22;23500;53.268;8.308;2023-11-21T05:25:22;21.10;62.40
37658;DHT22;23500;53.268;8.308;2023-11-21T05:27:48;21.20;62.60
37658;DHT22;23500;53.268;8.308;2023-11-21T05:30:14;21.20;62.80
37658;DHT22;23500;53.268;8.308;2023-11-21T05:32:41;21.30;62.90
37658;DHT22;23500;53.268;8.308;2023-11-21T05:35:10;21.30;62.90
37658;DHT22;23500;53.268;8.308;2023-11-21T05:37:41;21.40;62.90
37658;DHT22;23500;53.268;8.308;2023-11-21T05:40:08;21.40;62.80
37658;DHT22;23500;53.268;8.308;2023-11-21T05:42:34;21.40;62.70
37658;DHT22;23500;53.268;8.308;2023-11-21T05:45:00;21.50;63.40
37658;DHT22;23500;53.268;8.308;2023-11-21T05:47:45;21.50;62.60
37658;DHT22;23500;53.268;8.308;2023-11-21T05:50:13;21.50;62.60
37658;DHT22;23500;53.268;8.308;2023-11-21T05:52:44;21.50;62.50
37658;DHT22;23500;53.268;8.308;2023-11-21T05:55:10;21.60;62.60
37658;DHT22;23500;53.268;8.308;2023-11-21T05:57:40;21.60;62.60
37658;DHT22;23500;53.268;8.308;2023-11-21T06:00:08;21.60;62.60
37658;DHT22;23500;53.268;8.308;2023-11-21T06:02:39;21.60;62.60
37658;DHT22;23500;53.268;8.308;2023-11-21T06:05:08;21.70;62.50
37658;DHT22;23500;53.268;8.308;2023-11-21T06:07:34;21.70;62.50
37658;DHT22;23500;53.268;8.308;2023-11-21T06:10:02;21.60;62.30
37658;DHT22;23500;53.268;8.308;2023-11-21T06:12:31;21.60;62.30
37658;DHT22;23500;53.268;8.308;2023-11-21T06:15:01;21.60;62.40
37658;DHT22;23500;53.268;8.308;2023-11-21T06:17:29;21.60;62.40
37658;DHT22;23500;53.268;8.308;2023-11-21T06:19:55;21.60;62.40
37658;DHT22;23500;53.268;8.308;2023-11-21T06:22:20;21.60;62.40
37658;DHT22;23500;53.268;8.308;2023-11-21T06:24:46;21.60;62.40
37658;DHT22;23500;53.268;8.308;2023-11-21T06:27:12;21.60;62.50
37658;DHT22;23500;53.268;8.308;2023-11-21T06:29:38;21.60;62.60
37658;DHT22;23500;53.268;8.308;2023-11-21T06:32:04;21.60;62.40
37658;DHT22;23500;53.268;8.308;2023-11-21T06:34:31;21.60;62.50
37658;DHT22;23500;53.268;8.308;2023-11-21T06:36:56;21.60;62.50
37658;DHT22;23500;53.268;8.308;2023-11-21T06:39:22;21.60;62.60
37658;DHT22;23500;53.268;8.308;2023-11-21T06:41:49;21.60;62.40
37658;DHT22;23500;53.268;8.308;2023-11-21T06:44:15;21.70;62.30
37658;DHT22;23500;53.268;8.308;2023-11-21T06:46:41;21.70;62.30
37658;DHT22;23500;53.268;8.308;2023-11-21T06:49:08;21.70;62.20
37658;DHT22;23500;53.268;8.308;2023-11-21T06:51:34;21.70;62.10
37658;DHT22;23500;53.268;8.308;2023-11-21T06:54:00;21.80;62.10
37658;DHT22;23500;53.268;8.308;2023-11-21T06:56:26;21.80;62.00
37658;DHT22;23500;53.268;8.308;2023-11-21T06:58:51;21.80;61.90
37658;DHT22;23500;53.268;8.308;2023-11-21T07:01:20;21.80;61.90
37658;DHT22;23500;53.268;8.308;2023-11-21T07:03:46;21.80;62.00
37658;DHT22;23500;53.268;8.308;2023-11-21T07:06:11;21.80;61.90
37658;DHT22;23500;53.268;8.308;2023-11-21T07:08:37;21.70;61.80
37658;DHT22;23500;53.268;8.308;2023-11-21T07:11:04;21.70;61.70
37658;DHT22;23500;53.268;8.308;2023-11-21T07:13:30;21.60;61.60
37658;DHT22;23500;53.268;8.308;2023-11-21T07:15:59;21.60;61.70
37658;DHT22;23500;53.268;8.308;2023-11-21T07:18:25;21.60;61.70
37658;DHT22;23500;53.268;8.308;2023-11-21T07:20:51;21.50;61.70
37658;DHT22;23500;53.268;8.308;2023-11-21T07:23:17;21.50;61.80
37658;DHT22;23500;53.268;8.308;2023-11-21T07:25:43;21.40;61.70
37658;DHT22;23500;53.268;8.308;2023-11-21T07:28:09;21.40;61.80
37658;DHT22;23500;53.268;8.308;2023-11-21T07:30:35;21.40;61.80
37658;DHT22;23500;53.268;8.308;2023-11-21T07:33:01;21.40;61.10
37658;DHT22;23500;53.268;8.308;2023-11-21T07:35:27;21.30;60.80
37658;DHT22;23500;53.268;8.308;2023-11-21T07:37:52;21.30;61.00
37658;DHT22;23500;53.268;8.308;2023-11-21T07:40:18;21.20;61.40
37658;DHT22;23500;53.268;8.308;2023-11-21T07:42:44;21.20;61.90
37658;DHT22;23500;53.268;8.308;2023-11-21T07:45:10;21.20;62.10
37658;DHT22;23500;53.268;8.308;2023-11-21T07:47:35;21.20;62.20
37658;DHT22;23500;53.268;8.308;2023-11-21T07:50:05;21.20;62.30
37658;DHT22;23500;53.268;8.308;2023-11-21T07:52:32;21.20;62.30
37658;DHT22;23500;53.268;8.308;2023-11-21T07:54:59;21.20;62.40
37658;DHT22;23500;53.268;8.308;2023-11-21T07:57:24;21.20;62.40
37658;DHT22;23500;53.268;8.308;2023-11-21T07:59:50;21.20;62.40
37658;DHT22;23500;53.268;8.308;2023-11-21T08:02:19;21.20;62.40
37658;DHT22;23500;53.268;8.308;2023-11-21T08:04:44;21.20;62.30
37658;DHT22;23500;53.268;8.308;2023-11-21T08:07:10;21.20;62.40
37658;DHT22;23500;53.268;8.308;2023-11-21T08:09:36;21.20;62.50
37658;DHT22;23500;53.268;8.308;2023-11-21T08:12:02;21.20;62.40
37658;DHT22;23500;53.268;8.308;2023-11-21T08:14:28;21.20;62.50
37658;DHT22;23500;53.268;8.308;2023-11-21T08:16:54;21.20;62.50
37658;DHT22;23500;53.268;8.308;2023-11-21T08:19:23;21.10;62.50
37658;DHT22;23500;53.268;8.308;2023-11-21T08:21:50;21.10;62.60
37658;DHT22;23500;53.268;8.308;2023-11-21T08:24:16;21.10;62.70
37658;DHT22;23500;53.268;8.308;2023-11-21T08:26:42;21.10;62.70
37658;DHT22;23500;53.268;8.308;2023-11-21T08:29:08;21.10;62.80
37658;DHT22;23500;53.268;8.308;2023-11-21T08:31:34;21.00;62.80
37658;DHT22;23500;53.268;8.308;2023-11-21T08:34:00;21.00;62.80
37658;DHT22;23500;53.268;8.308;2023-11-21T08:36:28;21.00;62.80
37658;DHT22;23500;53.268;8.308;2023-11-21T08:38:54;21.00;62.90
37658;DHT22;23500;53.268;8.308;2023-11-21T08:41:20;21.00;63.00
37658;DHT22;23500;53.268;8.308;2023-11-21T08:43:49;20.90;62.90
37658;DHT22;23500;53.268;8.308;2023-11-21T08:46:15;20.90;63.00
37658;DHT22;23500;53.268;8.308;2023-11-21T08:48:43;20.90;63.10
37658;DHT22;23500;53.268;8.308;2023-11-21T08:51:10;20.90;63.10
37658;DHT22;23500;53.268;8.308;2023-11-21T08:53:37;20.90;63.10
37658;DHT22;23500;53.268;8.308;2023-11-21T08:56:03;20.80;63.10
37658;DHT22;23500;53.268;8.308;2023-11-21T08:58:31;20.80;63.20
37658;DHT22;23500;53.268;8.308;2023-11-21T09:00:57;20.80;63.20
37658;DHT22;23500;53.268;8.308;2023-11-21T09:03:23;20.80;63.30
37658;DHT22;23500;53.268;8.308;2023-11-21T09:05:49;20.80;63.30
37658;DHT22;23500;53.268;8.308;2023-11-21T09:08:15;20.80;63.30
37658;DHT22;23500;53.268;8.308;2023-11-21T09:10:40;20.80;63.30
37658;DHT22;23500;53.268;8.308;2023-11-21T09:13:08;20.70;63.40
37658;DHT22;23500;53.268;8.308;2023-11-21T09:15:34;20.70;63.40
37658;DHT22;23500;53.268;8.308;2023-11-21T09:18:00;20.70;63.40
37658;DHT22;23500;53.268;8.308;2023-11-21T09:20:27;20.70;63.50
37658;DHT22;23500;53.268;8.308;2023-11-21T09:22:54;20.70;63.50
37658;DHT22;23500;53.268;8.308;2023-11-21T09:25:20;20.60;63.50
37658;DHT22;23500;53.268;8.308;2023-11-21T09:27:46;20.70;63.60
37658;DHT22;23500;53.268;8.308;2023-11-21T09:30:12;20.70;63.60
37658;DHT22;23500;53.268;8.308;2023-11-21T09:32:40;20.60;63.50
37658;DHT22;23500;53.268;8.308;2023-11-21T09:35:06;20.60;63.50
37658;DHT22;23500;53.268;8.308;2023-11-21T09:37:35;20.60;63.60
37658;DHT22;23500;53.268;8.308;2023-11-21T09:40:01;20.70;63.60
37658;DHT22;23500;53.268;8.308;2023-11-21T09:42:40;20.60;63.70
37658;DHT22;23500;53.268;8.308;2023-11-21T09:45:12;20.60;63.60
37658;DHT22;23500;53.268;8.308;2023-11-21T09:47:42;20.60;63.60
37658;DHT22;23500;53.268;8.308;2023-11-21T09:50:09;20.60;63.60
37658;DHT22;23500;53.268;8.308;2023-11-21T09:55:27;20.60;63.60
37658;DHT22;23500;53.268;8.308;2023-11-21T09:58:02;20.60;63.60
37658;DHT22;23500;53.268;8.308;2023-11-21T10:00:30;20.50;63.50
37658;DHT22;23500;53.268;8.308;2023-11-21T10:02:58;20.60;63.50
37658;DHT22;23500;53.268;8.308;2023-11-21T10:05:25;20.50;63.50
37658;DHT22;23500;53.268;8.308;2023-11-21T10:07:51;20.50;64.20
37658;DHT22;23500;53.268;8.308;2023-11-21T10:10:19;20.60;63.50
37658;DHT22;23500;53.268;8.308;2023-11-21T10:12:50;20.60;63.40
37658;DHT22;23500;53.268;8.308;2023-11-21T10:15:22;20.70;63.40
37658;DHT22;23500;53.268;8.308;2023-11-21T10:17:49;20.70;63.30
37658;DHT22;23500;53.268;8.308;2023-11-21T10:20:16;20.70;63.20
37658;DHT22;23500;53.268;8.308;2023-11-21T10:22:43;20.70;63.10
37658;DHT22;23500;53.268;8.308;2023-11-21T10:25:10;20.80;63.00
37658;DHT22;23500;53.268;8.308;2023-11-21T10:27:37;20.80;62.80
37658;DHT22;23500;53.268;8.308;2023-11-21T10:30:05;20.90;62.80
37658;DHT22;23500;53.268;8.308;2023-11-21T10:32:31;20.90;62.70
37658;DHT22;23500;53.268;8.308;2023-11-21T10:34:59;21.00;62.70
37658;DHT22;23500;53.268;8.308;2023-11-21T10:37:26;21.00;62.60
37658;DHT22;23500;53.268;8.308;2023-11-21T10:39:59;21.00;62.50
37658;DHT22;23500;53.268;8.308;2023-11-21T10:42:25;21.00;62.50
37658;DHT22;23500;53.268;8.308;2023-11-21T10:44:52;21.00;62.40
37658;DHT22;23500;53.268;8.308;2023-11-21T10:47:18;21.00;62.30
37658;DHT22;23500;53.268;8.308;2023-11-21T10:49:45;21.10;62.30
37658;DHT22;23500;53.268;8.308;2023-11-21T10:52:13;21.10;62.30
37658;DHT22;23500;53.268;8.308;2023-11-21T10:54:43;21.10;62.70
37658;DHT22;23500;53.268;8.308;2023-11-21T10:57:10;21.10;62.30
37658;DHT22;23500;53.268;8.308;2023-11-21T10:59:36;21.10;62.20
37658;DHT22;23500;53.268;8.308;2023-11-21T11:02:23;21.10;62.20
37658;DHT22;23500;53.268;8.308;2023-11-21T11:04:52;21.10;62.10
37658;DHT22;23500;53.268;8.308;2023-11-21T11:07:17;21.10;62.10
37658;DHT22;23500;53.268;8.308;2023-11-21T11:09:45;21.10;62.10
37658;DHT22;23500;53.268;8.308;2023-11-21T11:12:12;21.10;62.00
37658;DHT22;23500;53.268;8.308;2023-11-21T11:14:41;21.10;62.00
37658;DHT22;23500;53.268;8.308;2023-11-21T11:17:09;21.10;61.90
37658;DHT22;23500;53.268;8.308;2023-11-21T11:19:36;21.10;62.00
37658;DHT22;23500;53.268;8.308;2023-11-21T11:22:36;21.20;61.90
37658;DHT22;23500;53.268;8.308;2023-11-21T11:30:47;21.20;61.80
37658;DHT22;23500;53.268;8.308;2023-11-21T11:33:26;21.20;61.80
37658;DHT22;23500;53.268;8.308;2023-11-21T11:36:10;21.20;61.90
37658;DHT22;23500;53.268;8.308;2023-11-21T11:38:39;21.20;61.90
37658;DHT22;23500;53.268;8.308;2023-11-21T11:41:10;21.20;61.80
37658;DHT22;23500;53.268;8.308;2023-11-21T11:43:36;21.20;61.80
37658;DHT22;23500;53.268;8.308;2023-11-21T11:46:11;21.20;61.80
37658;DHT22;23500;53.268;8.308;2023-11-21T11:48:40;21.20;61.80
37658;DHT22;23500;53.268;8.308;2023-11-21T11:51:15;21.20;61.80
37658;DHT22;23500;53.268;8.308;2023-11-21T11:53:47;21.20;61.80
37658;DHT22;23500;53.268;8.308;2023-11-21T11:58:49;21.20;61.70
37658;DHT22;23500;53.268;8.308;2023-11-21T12:01:20;21.20;61.70
37658;DHT22;23500;53.268;8.308;2023-11-21T12:06:45;21.20;61.70
37658;DHT22;23500;53.268;8.308;2023-11-21T12:09:22;21.20;61.60
37658;DHT22;23500;53.268;8.308;2023-11-21T12:11:51;21.20;61.60
37658;DHT22;23500;53.268;8.308;2023-11-21T12:14:17;21.20;61.70
37658;DHT22;23500;53.268;8.308;2023-11-21T12:16:43;21.20;61.60
37658;DHT22;23500;53.268;8.308;2023-11-21T12:19:12;21.20;61.60
37658;DHT22;23500;53.268;8.308;2023-11-21T12:21:39;21.30;61.70
37658;DHT22;23500;53.268;8.308;2023-11-21T12:24:08;21.30;61.70
37658;DHT22;23500;53.268;8.308;2023-11-21T12:26:39;21.30;61.60
37658;DHT22;23500;53.268;8.308;2023-11-21T12:29:05;21.20;61.50
37658;DHT22;23500;53.268;8.308;2023-11-21T12:31:33;21.30;61.60
37658;DHT22;23500;53.268;8.308;2023-11-21T12:34:00;21.30;61.50
37658;DHT22;23500;53.268;8.308;2023-11-21T12:36:26;21.20;61.50
37658;DHT22;23500;53.268;8.308;2023-11-21T12:38:52;21.20;61.60
37658;DHT22;23500;53.268;8.308;2023-11-21T12:41:18;21.30;61.60
37658;DHT22;23500;53.268;8.308;2023-11-21T12:43:46;21.20;61.60
37658;DHT22;23500;53.268;8.308;2023-11-21T12:46:13;21.30;61.70
37658;DHT22;23500;53.268;8.308;2023-11-21T12:48:44;21.20;61.70
37658;DHT22;23500;53.268;8.308;2023-11-21T12:51:12;21.30;62.40
37658;DHT22;23500;53.268;8.308;2023-11-21T12:53:39;21.20;61.70
37658;DHT22;23500;53.268;8.308;2023-11-21T12:56:15;21.20;61.70
37658;DHT22;23500;53.268;8.308;2023-11-21T12:58:45;21.20;61.80
37658;DHT22;23500;53.268;8.308;2023-11-21T13:01:16;21.20;61.70
37658;DHT22;23500;53.268;8.308;2023-11-21T13:03:47;21.20;61.70
37658;DHT22;23500;53.268;8.308;2023-11-21T13:06:18;21.20;61.80
37658;DHT22;23500;53.268;8.308;2023-11-21T13:08:45;21.20;61.90
37658;DHT22;23500;53.268;8.308;2023-11-21T13:11:11;21.20;61.80
37658;DHT22;23500;53.268;8.308;2023-11-21T13:13:40;21.20;61.90
37658;DHT22;23500;53.268;8.308;2023-11-21T13:16:07;21.20;61.90
37658;DHT22;23500;53.268;8.308;2023-11-21T13:18:34;21.20;62.60
37658;DHT22;23500;53.268;8.308;2023-11-21T13:21:02;21.20;61.90
37658;DHT22;23500;53.268;8.308;2023-11-21T13:23:35;21.20;61.90
37658;DHT22;23500;53.268;8.308;2023-11-21T13:26:01;21.20;61.90
37658;DHT22;23500;53.268;8.308;2023-11-21T13:28:33;21.20;61.70
37658;DHT22;23500;53.268;8.308;2023-11-21T13:30:59;21.20;61.70
37658;DHT22;23500;53.268;8.308;2023-11-21T13:33:35;21.30;61.50
37658;DHT22;23500;53.268;8.308;2023-11-21T13:36:04;21.30;59.70
37658;DHT22;23500;53.268;8.308;2023-11-21T13:38:33;21.20;56.60
37658;DHT22;23500;53.268;8.308;2023-11-21T13:41:01;21.00;56.10
37658;DHT22;23500;53.268;8.308;2023-11-21T13:43:27;21.00;58.40
37658;DHT22;23500;53.268;8.308;2023-11-21T13:45:57;21.10;59.00
37658;DHT22;23500;53.268;8.308;2023-11-21T13:48:29;21.10;56.80
37658;DHT22;23500;53.268;8.308;2023-11-21T13:51:06;20.90;55.10
37658;DHT22;23500;53.268;8.308;2023-11-21T13:53:47;20.90;57.30
37658;DHT22;23500;53.268;8.308;2023-11-21T13:56:18;21.00;58.00
37658;DHT22;23500;53.268;8.308;2023-11-21T13:58:52;21.00;56.80
37658;DHT22;23500;53.268;8.308;2023-11-21T14:01:23;20.80;54.40
37658;DHT22;23500;53.268;8.308;2023-11-21T14:03:49;20.70;55.00
37658;DHT22;23500;53.268;8.308;2023-11-21T14:06:22;20.70;56.00
37658;DHT22;23500;53.268;8.308;2023-11-21T14:08:52;20.80;57.30
37658;DHT22;23500;53.268;8.308;2023-11-21T14:11:22;20.80;55.40
37658;DHT22;23500;53.268;8.308;2023-11-21T14:13:48;20.50;54.70
37658;DHT22;23500;53.268;8.308;2023-11-21T14:16:14;20.40;57.10
37658;DHT22;23500;53.268;8.308;2023-11-21T14:18:43;20.50;58.10
37658;DHT22;23500;53.268;8.308;2023-11-21T14:21:19;20.60;58.50
37658;DHT22;23500;53.268;8.308;2023-11-21T14:23:45;20.60;58.90
37658;DHT22;23500;53.268;8.308;2023-11-21T14:26:14;20.70;58.90
37658;DHT22;23500;53.268;8.308;2023-11-21T14:28:41;20.80;59.10
37658;DHT22;23500;53.268;8.308;2023-11-21T14:31:07;20.80;59.40
37658;DHT22;23500;53.268;8.308;2023-11-21T14:33:33;20.90;59.30
37658;DHT22;23500;53.268;8.308;2023-11-21T14:35:59;20.90;59.30
37658;DHT22;23500;53.268;8.308;2023-11-21T14:38:25;20.90;59.30
37658;DHT22;23500;53.268;8.308;2023-11-21T14:40:51;21.00;59.30
37658;DHT22;23500;53.268;8.308;2023-11-21T14:43:16;21.00;59.20
37658;DHT22;23500;53.268;8.308;2023-11-21T14:45:47;21.10;59.30
37658;DHT22;23500;53.268;8.308;2023-11-21T14:48:14;21.10;59.20
37658;DHT22;23500;53.268;8.308;2023-11-21T14:50:54;21.10;59.20
37658;DHT22;23500;53.268;8.308;2023-11-21T14:53:29;21.10;59.20
37658;DHT22;23500;53.268;8.308;2023-11-21T14:56:23;21.20;59.30
37658;DHT22;23500;53.268;8.308;2023-11-21T14:59:00;21.20;59.20
37658;DHT22;23500;53.268;8.308;2023-11-21T15:01:32;21.20;59.00
37658;DHT22;23500;53.268;8.308;2023-11-21T15:04:20;21.20;59.30
37658;DHT22;23500;53.268;8.308;2023-11-21T15:06:52;21.20;59.10
37658;DHT22;23500;53.268;8.308;2023-11-21T15:09:21;21.20;58.80
37658;DHT22;23500;53.268;8.308;2023-11-21T15:12:03;21.20;58.90
37658;DHT22;23500;53.268;8.308;2023-11-21T15:14:47;21.20;59.00
37658;DHT22;23500;53.268;8.308;2023-11-21T15:17:15;21.30;59.00
37658;DHT22;23500;53.268;8.308;2023-11-21T15:19:48;21.30;59.00
37658;DHT22;23500;53.268;8.308;2023-11-21T15:22:14;21.30;59.00
37658;DHT22;23500;53.268;8.308;2023-11-21T15:24:42;21.30;59.00
37658;DHT22;23500;53.268;8.308;2023-11-21T15:27:10;21.30;59.10
37658;DHT22;23500;53.268;8.308;2023-11-21T15:29:36;21.30;58.90
37658;DHT22;23500;53.268;8.308;2023-11-21T15:32:02;21.30;59.00
37658;DHT22;23500;53.268;8.308;2023-11-21T15:34:28;21.30;59.00
37658;DHT22;23500;53.268;8.308;2023-11-21T15:36:56;21.30;59.10
37658;DHT22;23500;53.268;8.308;2023-11-21T15:39:22;21.30;59.10
37658;DHT22;23500;53.268;8.308;2023-11-21T15:41:52;21.30;59.20
37658;DHT22;23500;53.268;8.308;2023-11-21T15:44:17;21.30;59.40
37658;DHT22;23500;53.268;8.308;2023-11-21T15:46:43;21.30;59.50